createdAt,value
2022-10-28T00:01:50.280Z,88
2022-10-28T00:05:51.524Z,88
2022-10-28T00:07:49.144Z,88
2022-10-28T00:09:48.644Z,88
2022-10-28T00:11:48.369Z,88
2022-10-28T00:13:48.663Z,88
2022-10-28T00:15:48.613Z,88
2022-10-28T00:19:48.506Z,89
2022-10-28T00:21:48.636Z,89
2022-10-28T00:23:51.763Z,89
2022-10-28T00:25:48.383Z,88
2022-10-28T00:27:48.694Z,89
2022-10-28T00:29:51.945Z,89
2022-10-28T00:31:50.228Z,89
2022-10-28T00:33:48.715Z,89
2022-10-28T00:35:48.646Z,89
2022-10-28T00:37:48.549Z,89
2022-10-28T00:39:48.670Z,89
2022-10-28T00:41:48.677Z,89
2022-10-28T00:43:51.790Z,89
2022-10-28T00:45:51.803Z,89
2022-10-28T00:47:48.508Z,89
2022-10-28T00:49:48.550Z,88
2022-10-28T00:51:47.149Z,88
2022-10-28T00:53:48.692Z,88
2022-10-28T00:55:50.254Z,88
2022-10-28T00:57:48.629Z,88
2022-10-28T00:59:48.637Z,88
2022-10-28T01:01:48.949Z,88
2022-10-28T01:03:48.672Z,88
2022-10-28T01:05:48.656Z,88
2022-10-28T01:07:48.656Z,88
2022-10-28T01:09:51.894Z,88
2022-10-28T01:11:48.613Z,88
2022-10-28T01:15:51.825Z,89
2022-10-28T01:17:48.589Z,89
2022-10-28T01:19:51.843Z,89
2022-10-28T01:21:48.650Z,89
2022-10-28T01:23:48.662Z,89
2022-10-28T01:25:51.507Z,89
2022-10-28T01:27:48.655Z,89
2022-10-28T01:29:48.606Z,89
2022-10-28T01:31:48.657Z,89
2022-10-28T01:33:48.701Z,89
2022-10-28T01:35:51.854Z,89
2022-10-28T01:37:48.590Z,88
2022-10-28T01:39:48.629Z,88
2022-10-28T01:41:48.634Z,88
2022-10-28T01:43:48.671Z,88
2022-10-28T01:45:48.677Z,89
2022-10-28T01:47:48.651Z,89
2022-10-28T01:49:51.893Z,88
2022-10-28T01:51:51.789Z,88
2022-10-28T01:53:48.564Z,88
2022-10-28T01:55:50.221Z,89
2022-10-28T01:57:52.008Z,89
2022-10-28T01:59:51.608Z,88
2022-10-28T02:01:51.993Z,88
2022-10-28T02:07:48.611Z,89
2022-10-28T02:09:48.632Z,88
2022-10-28T02:11:48.542Z,88
2022-10-28T02:13:51.637Z,88
2022-10-28T02:15:53.359Z,88
2022-10-28T02:17:48.665Z,89
2022-10-28T02:19:48.669Z,89
2022-10-28T02:21:49.250Z,88
2022-10-28T02:23:48.669Z,87
2022-10-28T02:25:48.680Z,87
2022-10-28T02:27:49.481Z,87
2022-10-28T02:29:48.672Z,87
2022-10-28T02:31:48.672Z,87
2022-10-28T02:33:48.705Z,87
2022-10-28T02:35:48.589Z,87
2022-10-28T02:37:48.571Z,87
2022-10-28T02:39:54.730Z,87
2022-10-28T02:41:48.589Z,87
2022-10-28T02:43:48.250Z,86
2022-10-28T02:45:48.566Z,86
2022-10-28T02:49:51.970Z,85
2022-10-28T02:51:50.259Z,85
2022-10-28T02:53:48.621Z,85
2022-10-28T02:55:48.631Z,86
2022-10-28T02:57:49.005Z,86
2022-10-28T02:59:48.606Z,86
2022-10-28T03:01:48.854Z,86
2022-10-28T03:03:48.676Z,85
2022-10-28T03:05:48.707Z,85
2022-10-28T03:07:48.655Z,85
2022-10-28T03:09:48.753Z,84
2022-10-28T03:11:48.694Z,84
2022-10-28T03:13:48.419Z,84
2022-10-28T03:15:48.561Z,84
2022-10-28T03:17:48.559Z,84
2022-10-28T03:19:48.716Z,84
2022-10-28T03:21:48.748Z,84
2022-10-28T03:23:52.070Z,84
2022-10-28T03:25:51.766Z,84
2022-10-28T03:27:48.654Z,84
2022-10-28T03:29:48.554Z,84
2022-10-28T03:31:51.857Z,84
2022-10-28T03:33:48.953Z,83
2022-10-28T03:35:48.626Z,84
2022-10-28T03:37:48.886Z,84
2022-10-28T03:39:52.171Z,84
2022-10-28T03:41:48.680Z,84
2022-10-28T03:43:48.334Z,84
2022-10-28T03:45:48.987Z,84
2022-10-28T03:47:48.603Z,84
2022-10-28T03:49:49.105Z,85
2022-10-28T03:51:48.697Z,85
2022-10-28T03:53:50.282Z,85
2022-10-28T03:55:51.584Z,85
2022-10-28T03:57:48.610Z,85
2022-10-28T04:01:48.809Z,86
2022-10-28T04:03:49.028Z,86
2022-10-28T04:05:48.356Z,87
2022-10-28T04:07:48.724Z,86
2022-10-28T04:09:48.628Z,86
2022-10-28T04:11:48.973Z,86
2022-10-28T04:15:48.662Z,86
2022-10-28T04:19:48.985Z,86
2022-10-28T04:21:48.650Z,86
2022-10-28T04:23:48.687Z,86
2022-10-28T04:25:48.701Z,85
2022-10-28T04:27:48.722Z,85
2022-10-28T04:29:51.862Z,85
2022-10-28T04:31:52.292Z,84
2022-10-28T04:33:48.686Z,84
2022-10-28T04:35:48.656Z,83
2022-10-28T04:37:47.079Z,83
2022-10-28T04:39:48.427Z,83
2022-10-28T04:41:48.641Z,83
2022-10-28T04:43:51.806Z,83
2022-10-28T04:45:48.716Z,83
2022-10-28T04:49:55.202Z,83
2022-10-28T04:51:48.658Z,82
2022-10-28T04:53:48.651Z,82
2022-10-28T04:55:51.820Z,83
2022-10-28T04:57:48.597Z,83
2022-10-28T04:59:48.314Z,83
2022-10-28T05:01:48.685Z,83
2022-10-28T05:03:54.684Z,84
2022-10-28T05:05:51.597Z,84
2022-10-28T05:07:48.594Z,84
2022-10-28T05:11:48.941Z,84
2022-10-28T05:13:49.153Z,84
2022-10-28T05:15:48.675Z,84
2022-10-28T05:17:48.691Z,84
2022-10-28T05:19:48.693Z,84
2022-10-28T05:21:48.694Z,84
2022-10-28T05:23:48.562Z,84
2022-10-28T05:25:48.325Z,83
2022-10-28T05:27:51.845Z,83
2022-10-28T05:29:50.255Z,83
2022-10-28T05:31:49.775Z,83
2022-10-28T05:33:48.663Z,83
2022-10-28T05:35:48.693Z,83
2022-10-28T05:37:51.898Z,83
2022-10-28T05:41:48.631Z,84
2022-10-28T05:43:51.811Z,85
2022-10-28T05:45:51.020Z,86
2022-10-28T05:47:48.681Z,86
2022-10-28T05:49:52.201Z,86
2022-10-28T05:53:48.644Z,84
2022-10-28T05:55:48.987Z,84
2022-10-28T05:57:48.674Z,85
2022-10-28T05:59:48.739Z,84
2022-10-28T06:01:48.802Z,84
2022-10-28T06:03:48.907Z,83
2022-10-28T06:05:48.625Z,83
2022-10-28T06:07:48.539Z,83
2022-10-28T06:09:48.721Z,84
2022-10-28T06:11:47.051Z,84
2022-10-28T06:13:47.284Z,85
2022-10-28T06:15:53.383Z,85
2022-10-28T06:19:47.069Z,85
2022-10-28T06:23:50.063Z,81
2022-10-28T06:25:47.132Z,82
2022-10-28T06:27:52.029Z,82
2022-10-28T06:29:47.104Z,83
2022-10-28T06:33:47.174Z,81
2022-10-28T06:37:50.640Z,81
2022-10-28T06:39:47.157Z,81
2022-10-28T06:41:47.138Z,81
2022-10-28T06:43:47.168Z,80
2022-10-28T06:45:47.174Z,80
2022-10-28T06:47:52.315Z,80
2022-10-28T06:49:48.615Z,80
2022-10-28T06:51:48.975Z,79
2022-10-28T06:53:48.627Z,80
2022-10-28T06:55:48.764Z,80
2022-10-28T06:57:48.730Z,80
2022-10-28T06:59:48.714Z,79
2022-10-28T07:01:48.836Z,79
2022-10-28T07:03:48.699Z,79
2022-10-28T07:05:48.596Z,79
2022-10-28T07:07:48.672Z,78
2022-10-28T07:09:48.818Z,78
2022-10-28T07:11:53.661Z,77
2022-10-28T07:13:48.944Z,77
2022-10-28T07:15:51.890Z,77
2022-10-28T07:17:48.681Z,78
2022-10-28T07:19:48.718Z,78
2022-10-28T07:21:48.727Z,78
2022-10-28T07:23:52.195Z,77
2022-10-28T07:25:48.676Z,78
2022-10-28T07:27:48.745Z,78
2022-10-28T07:29:51.944Z,78
2022-10-28T07:31:48.739Z,78
2022-10-28T07:35:51.729Z,76
2022-10-28T07:37:48.735Z,76
2022-10-28T07:39:52.019Z,75
2022-10-28T07:41:48.714Z,75
2022-10-28T07:43:48.686Z,76
2022-10-28T07:47:48.636Z,76
2022-10-28T07:49:48.671Z,76
2022-10-28T07:51:51.936Z,75
2022-10-28T07:53:48.760Z,75
2022-10-28T07:55:51.950Z,74
2022-10-28T07:57:48.697Z,75
2022-10-28T07:59:48.736Z,76
2022-10-28T08:01:52.175Z,76
2022-10-28T08:05:48.702Z,77
2022-10-28T08:07:49.114Z,77
2022-10-28T08:09:48.697Z,77
2022-10-28T08:11:48.615Z,77
2022-10-28T08:13:48.729Z,77
2022-10-28T08:15:49.680Z,76
2022-10-28T08:17:54.939Z,76
2022-10-28T08:19:51.924Z,76
2022-10-28T08:21:51.745Z,75
2022-10-28T08:27:48.830Z,75
2022-10-28T08:29:48.335Z,74
2022-10-28T08:31:48.660Z,74
2022-10-28T08:34:57.463Z,76
2022-10-28T08:38:55.228Z,76
2022-10-28T08:40:56.900Z,76
2022-10-28T08:42:56.948Z,75
2022-10-28T08:44:56.893Z,75
2022-10-28T08:46:56.892Z,75
2022-10-28T08:48:56.840Z,74
2022-10-28T08:50:56.848Z,74
2022-10-28T08:53:00.878Z,74
2022-10-28T08:54:56.771Z,73
2022-10-28T08:56:56.788Z,73
2022-10-28T08:58:56.803Z,73
2022-10-28T09:00:56.904Z,72
2022-10-28T09:02:57.020Z,72
2022-10-28T09:04:56.823Z,71
2022-10-28T09:06:56.833Z,72
2022-10-28T09:10:56.836Z,74
2022-10-28T09:12:56.949Z,74
2022-10-28T09:14:56.790Z,75
2022-10-28T09:16:56.830Z,75
2022-10-28T09:18:56.850Z,74
2022-10-28T09:20:56.905Z,72
2022-10-28T09:25:00.555Z,71
2022-10-28T09:26:56.803Z,71
2022-10-28T09:28:56.916Z,71
2022-10-28T09:31:00.177Z,72
2022-10-28T09:34:56.790Z,72
2022-10-28T09:36:56.853Z,72
2022-10-28T09:39:00.534Z,73
2022-10-28T09:40:56.846Z,74
2022-10-28T09:44:57.187Z,73
2022-10-28T09:46:56.538Z,73
2022-10-28T09:48:56.881Z,73
2022-10-28T09:51:02.264Z,72
2022-10-28T09:53:00.099Z,73
2022-10-28T09:54:56.835Z,73
2022-10-28T09:56:56.912Z,73
2022-10-28T09:58:56.867Z,73
2022-10-28T10:00:56.869Z,74
2022-10-28T10:02:57.446Z,73
2022-10-28T10:04:56.815Z,73
2022-10-28T10:06:58.493Z,72
2022-10-28T10:08:56.881Z,73
2022-10-28T10:10:56.834Z,73
2022-10-28T10:12:57.273Z,73
2022-10-28T10:15:00.763Z,71
2022-10-28T10:19:03.424Z,71
2022-10-28T10:21:00.789Z,71
2022-10-28T10:22:56.977Z,69
2022-10-28T10:25:00.847Z,70
2022-10-28T10:26:56.803Z,70
2022-10-28T10:28:56.787Z,70
2022-10-28T10:30:56.859Z,69
2022-10-28T10:32:56.847Z,70
2022-10-28T10:34:56.856Z,71
2022-10-28T10:36:56.848Z,71
2022-10-28T10:38:57.136Z,71
2022-10-28T10:40:56.787Z,71
2022-10-28T10:46:58.792Z,70
2022-10-28T10:48:56.834Z,71
2022-10-28T10:50:55.305Z,71
2022-10-28T10:52:57.406Z,71
2022-10-28T10:54:56.906Z,72
2022-10-28T11:00:56.826Z,73
2022-10-28T11:02:56.860Z,73
2022-10-28T11:04:57.009Z,71
2022-10-28T11:06:57.079Z,71
2022-10-28T11:10:59.701Z,70
2022-10-28T11:12:57.042Z,70
2022-10-28T11:15:00.852Z,70
2022-10-28T11:16:56.909Z,71
2022-10-28T11:18:56.822Z,71
2022-10-28T11:20:56.858Z,70
2022-10-28T11:22:57.157Z,71
2022-10-28T11:24:56.844Z,71
2022-10-28T11:26:56.870Z,70
2022-10-28T11:31:00.651Z,68
2022-10-28T11:33:02.043Z,68
2022-10-28T11:35:00.736Z,68
2022-10-28T11:36:56.856Z,68
2022-10-28T11:39:00.390Z,69
2022-10-28T11:42:57.007Z,70
2022-10-28T11:44:56.602Z,70
2022-10-28T11:48:56.836Z,69
2022-10-28T11:50:56.810Z,69
2022-10-28T11:52:54.090Z,69
2022-10-28T11:54:56.862Z,69
2022-10-28T11:56:56.817Z,69
2022-10-28T11:58:57.159Z,69
2022-10-28T12:00:56.843Z,70
2022-10-28T12:03:01.036Z,70
2022-10-28T12:04:56.857Z,70
2022-10-28T12:07:03.627Z,69
2022-10-28T12:08:56.907Z,68
2022-10-28T12:11:00.473Z,66
2022-10-28T12:15:03.990Z,66
2022-10-28T12:16:56.823Z,66
2022-10-28T12:18:56.867Z,66
2022-10-28T12:20:56.837Z,67
2022-10-28T12:22:57.086Z,68
2022-10-28T12:24:57.000Z,68
2022-10-28T12:26:54.266Z,68
2022-10-28T12:30:56.863Z,70
2022-10-28T12:32:57.162Z,70
2022-10-28T12:34:56.874Z,70
2022-10-28T12:36:57.076Z,67
2022-10-28T12:38:56.829Z,67
2022-10-28T12:40:56.862Z,67
2022-10-28T12:42:57.027Z,67
2022-10-28T12:44:56.836Z,69
2022-10-28T12:46:58.453Z,68
2022-10-28T12:48:56.827Z,68
2022-10-28T12:50:56.818Z,69
2022-10-28T12:54:56.793Z,69
2022-10-28T12:56:56.799Z,69
2022-10-28T12:58:55.469Z,70
2022-10-28T13:00:56.897Z,70
2022-10-28T13:02:57.123Z,70
2022-10-28T13:04:56.839Z,69
2022-10-28T13:07:03.058Z,70
2022-10-28T13:10:56.856Z,70
2022-10-28T13:12:57.110Z,70
2022-10-28T13:14:56.935Z,68
2022-10-28T13:17:00.004Z,67
2022-10-28T13:18:56.828Z,68
2022-10-28T13:21:00.432Z,69
2022-10-28T13:22:56.903Z,69
2022-10-28T13:25:00.652Z,69
2022-10-28T13:28:56.842Z,69
2022-10-28T13:30:56.859Z,68
2022-10-28T13:33:00.551Z,69
2022-10-28T13:34:58.519Z,69
2022-10-28T13:37:02.064Z,70
2022-10-28T13:38:54.840Z,69
2022-10-28T13:42:57.016Z,70
2022-10-28T13:44:56.998Z,69
2022-10-28T13:46:56.844Z,69
2022-10-28T13:48:57.680Z,69
2022-10-28T13:50:55.311Z,68
2022-10-28T13:52:57.112Z,69
2022-10-28T13:54:56.872Z,69
2022-10-28T13:56:56.874Z,70
2022-10-28T13:59:00.601Z,70
2022-10-28T14:00:56.787Z,70
2022-10-28T14:02:57.164Z,71
2022-10-28T14:04:56.871Z,71
2022-10-28T14:06:55.228Z,71
2022-10-28T14:09:00.588Z,71
2022-10-28T14:10:56.857Z,72
2022-10-28T14:12:55.657Z,72
2022-10-28T14:14:56.852Z,72
2022-10-28T14:17:00.542Z,72
2022-10-28T14:18:56.726Z,73
2022-10-28T14:21:01.056Z,73
2022-10-28T14:22:56.859Z,73
2022-10-28T14:24:57.301Z,72
2022-10-28T14:27:05.362Z,72
2022-10-28T14:28:56.848Z,72
2022-10-28T14:30:59.706Z,72
2022-10-28T14:32:57.193Z,72
2022-10-28T14:34:55.321Z,73
2022-10-28T14:37:04.662Z,73
2022-10-28T14:38:58.495Z,73
2022-10-28T14:40:56.913Z,73
2022-10-28T14:43:00.795Z,72
2022-10-28T14:44:56.842Z,72
2022-10-28T14:46:56.745Z,72
2022-10-28T14:48:56.809Z,71
2022-10-28T14:50:56.854Z,71
2022-10-28T14:52:56.996Z,71
2022-10-28T14:54:56.897Z,70
2022-10-28T14:56:56.848Z,71
2022-10-28T14:58:56.814Z,71
2022-10-28T15:00:56.778Z,70
2022-10-28T15:02:56.772Z,70
2022-10-28T15:04:56.485Z,70
2022-10-28T15:08:56.851Z,69
2022-10-28T15:10:56.850Z,70
2022-10-28T15:12:57.124Z,69
2022-10-28T15:15:00.747Z,69
2022-10-28T15:18:56.876Z,70
2022-10-28T15:21:00.647Z,71
2022-10-28T15:22:55.876Z,71
2022-10-28T15:24:56.828Z,71
2022-10-28T15:26:58.358Z,72
2022-10-28T15:29:00.522Z,73
2022-10-28T15:30:56.858Z,73
2022-10-28T15:32:57.145Z,73
2022-10-28T15:34:56.859Z,73
2022-10-28T15:36:56.782Z,74
2022-10-28T15:38:56.919Z,74
2022-10-28T15:40:56.905Z,74
2022-10-28T15:42:56.835Z,74
2022-10-28T15:44:59.883Z,74
2022-10-28T15:48:56.957Z,74
2022-10-28T15:50:56.870Z,74
2022-10-28T15:52:57.180Z,75
2022-10-28T15:54:58.403Z,75
2022-10-28T15:56:57.144Z,76
2022-10-28T15:58:56.763Z,76
2022-10-28T16:00:59.770Z,76
2022-10-28T16:02:57.061Z,77
2022-10-28T16:04:56.767Z,77
2022-10-28T16:06:56.843Z,77
2022-10-28T16:08:56.814Z,77
2022-10-28T16:12:56.844Z,77
2022-10-28T16:14:56.892Z,77
2022-10-28T16:16:56.875Z,77
2022-10-28T16:18:56.877Z,78
2022-10-28T16:21:02.165Z,78
2022-10-28T16:23:03.862Z,78
2022-10-28T16:24:56.972Z,78
2022-10-28T16:26:56.821Z,78
2022-10-28T16:28:56.865Z,78
2022-10-28T16:30:56.895Z,78
2022-10-28T16:32:57.070Z,79
2022-10-28T16:34:57.345Z,79
2022-10-28T16:36:56.831Z,79
2022-10-28T16:38:56.881Z,79
2022-10-28T16:40:56.936Z,79
2022-10-28T16:42:57.139Z,79
2022-10-28T16:46:57.153Z,80
2022-10-28T16:49:00.601Z,79
2022-10-28T16:50:56.889Z,79
2022-10-28T16:52:56.938Z,80
2022-10-28T16:54:56.886Z,80
2022-10-28T16:56:56.827Z,80
2022-10-28T16:58:56.874Z,80
2022-10-28T17:00:56.883Z,80
2022-10-28T17:02:56.880Z,80
2022-10-28T17:04:56.906Z,80
2022-10-28T17:07:00.596Z,80
2022-10-28T17:09:04.028Z,80
2022-10-28T17:10:56.899Z,80
2022-10-28T17:14:57.138Z,80
2022-10-28T17:16:56.780Z,80
2022-10-28T17:18:56.800Z,80
2022-10-28T17:20:56.764Z,80
2022-10-28T17:22:57.088Z,80
2022-10-28T17:24:58.384Z,80
2022-10-28T17:27:03.462Z,80
2022-10-28T17:28:56.635Z,80
2022-10-28T17:30:56.855Z,80
2022-10-28T17:32:56.832Z,80
2022-10-28T17:34:56.904Z,80
2022-10-28T17:36:56.923Z,80
2022-10-28T17:38:56.888Z,80
2022-10-28T17:40:56.666Z,80
2022-10-28T17:44:57.185Z,80
2022-10-28T17:46:57.000Z,80
2022-10-28T17:48:56.597Z,79
2022-10-28T17:50:56.809Z,79
2022-10-28T17:52:57.125Z,79
2022-10-28T17:54:56.866Z,78
2022-10-28T17:56:56.908Z,78
2022-10-28T17:58:56.889Z,78
2022-10-28T18:00:56.761Z,78
2022-10-28T18:02:57.032Z,79
2022-10-28T18:04:56.909Z,78
2022-10-28T18:06:56.785Z,78
2022-10-28T18:08:56.880Z,78
2022-10-28T18:10:56.895Z,78
2022-10-28T18:12:57.291Z,78
2022-10-28T18:14:59.951Z,78
2022-10-28T18:18:57.156Z,78
2022-10-28T18:20:56.897Z,78
2022-10-28T18:27:03.538Z,78
2022-10-28T18:28:57.032Z,78
2022-10-28T18:30:56.849Z,78
2022-10-28T18:32:57.100Z,78
2022-10-28T18:34:56.688Z,78
2022-10-28T18:38:56.903Z,78
2022-10-28T18:40:56.909Z,78
2022-10-28T18:44:57.151Z,78
2022-10-28T18:46:56.782Z,78
2022-10-28T18:48:58.466Z,78
2022-10-28T18:51:00.589Z,78
2022-10-28T18:53:03.980Z,78
2022-10-28T18:54:56.793Z,78
2022-10-28T18:56:57.819Z,78
2022-10-28T18:58:56.910Z,78
2022-10-28T19:00:56.588Z,78
2022-10-28T19:02:56.923Z,78
2022-10-28T19:04:56.908Z,78
2022-10-28T19:06:56.930Z,78
2022-10-28T19:08:56.896Z,78
2022-10-28T19:10:57.378Z,78
2022-10-28T19:12:57.231Z,78
2022-10-28T19:15:01.235Z,78
2022-10-28T19:16:56.803Z,78
2022-10-28T19:18:56.887Z,77
2022-10-28T19:21:00.730Z,77
2022-10-28T19:22:57.201Z,77
2022-10-28T19:24:56.933Z,77
2022-10-28T19:26:55.465Z,77
2022-10-28T19:30:56.886Z,77
2022-10-28T19:32:57.168Z,76
2022-10-28T19:34:56.829Z,76
2022-10-28T19:37:00.594Z,76
2022-10-28T19:38:56.892Z,76
2022-10-28T19:41:03.974Z,75
2022-10-28T19:42:56.880Z,75
2022-10-28T19:45:01.227Z,75
2022-10-28T19:46:56.898Z,75
2022-10-28T19:48:56.915Z,75
2022-10-28T19:50:56.913Z,75
2022-10-28T19:52:56.641Z,75
2022-10-28T19:54:56.921Z,74
2022-10-28T19:56:57.005Z,74
2022-10-28T19:58:55.356Z,74
2022-10-28T20:00:57.194Z,74
2022-10-28T20:02:56.817Z,74
2022-10-28T20:04:56.860Z,73
2022-10-28T20:06:56.983Z,74
2022-10-28T20:08:56.644Z,73
2022-10-28T20:11:04.203Z,72
2022-10-28T20:12:58.500Z,73
2022-10-28T20:14:54.757Z,74
2022-10-28T20:16:56.887Z,73
2022-10-28T20:18:57.156Z,73
2022-10-28T20:23:00.559Z,73
2022-10-28T20:25:00.697Z,73
2022-10-28T20:26:56.917Z,72
2022-10-28T20:28:56.920Z,72
2022-10-28T20:30:56.796Z,72
2022-10-28T20:32:56.937Z,72
2022-10-28T20:34:56.919Z,73
2022-10-28T20:36:58.510Z,72
2022-10-28T20:39:04.225Z,72
2022-10-28T20:40:56.859Z,73
2022-10-28T20:42:57.137Z,73
2022-10-28T20:44:56.939Z,73
2022-10-28T20:46:55.374Z,74
2022-10-28T20:48:56.899Z,74
2022-10-28T20:50:56.990Z,74
2022-10-28T20:52:57.193Z,75
2022-10-28T20:55:03.551Z,75
2022-10-28T20:57:00.114Z,75
2022-10-28T20:59:00.659Z,75
2022-10-28T21:04:56.876Z,76
2022-10-28T21:06:58.537Z,76
2022-10-28T21:08:59.905Z,76
2022-10-28T21:10:56.908Z,76
2022-10-28T21:12:59.391Z,77
2022-10-28T21:17:00.621Z,77
2022-10-28T21:18:56.873Z,77
2022-10-28T21:22:59.782Z,77
2022-10-28T21:25:00.757Z,77
2022-10-28T21:26:56.818Z,77
2022-10-28T21:30:58.523Z,77
2022-10-28T21:32:57.065Z,78
2022-10-28T21:34:55.432Z,77
2022-10-28T21:36:56.915Z,77
2022-10-28T21:38:56.649Z,77
2022-10-28T21:40:56.900Z,77
2022-10-28T21:43:00.919Z,77
2022-10-28T21:44:56.798Z,78
2022-10-28T21:47:00.733Z,78
2022-10-28T21:48:56.930Z,77
2022-10-28T21:50:57.279Z,77
2022-10-28T21:52:57.014Z,77
2022-10-28T21:54:56.903Z,76
2022-10-28T21:56:56.728Z,76
2022-10-28T21:59:02.138Z,76
2022-10-28T22:00:56.864Z,76
2022-10-28T22:02:56.951Z,75
2022-10-28T22:05:01.011Z,75
2022-10-28T22:06:56.914Z,74
2022-10-28T22:08:56.939Z,75
2022-10-28T22:10:57.152Z,75
2022-10-28T22:13:00.577Z,75
2022-10-28T22:14:58.492Z,75
2022-10-28T22:16:56.902Z,75
2022-10-28T22:19:00.607Z,75
2022-10-28T22:20:58.436Z,75
2022-10-28T22:22:57.022Z,75
2022-10-28T22:26:56.811Z,75
2022-10-28T22:30:56.819Z,75
2022-10-28T22:32:57.039Z,75
2022-10-28T22:34:56.996Z,76
2022-10-28T22:36:56.922Z,76
2022-10-28T22:40:56.935Z,76
2022-10-28T22:42:56.914Z,76
2022-10-28T22:44:57.251Z,76
2022-10-28T22:46:56.941Z,76
2022-10-28T22:48:56.944Z,76
2022-10-28T22:50:56.956Z,77
2022-10-28T22:52:56.722Z,78
2022-10-28T22:54:57.613Z,77
2022-10-28T22:58:56.960Z,78
2022-10-28T23:00:56.929Z,78
2022-10-28T23:03:01.052Z,78
2022-10-28T23:04:56.919Z,77
2022-10-28T23:06:57.035Z,77
2022-10-28T23:09:00.624Z,77
2022-10-28T23:10:56.920Z,77
2022-10-28T23:14:56.896Z,77
2022-10-28T23:16:56.969Z,78
2022-10-28T23:18:56.948Z,78
2022-10-28T23:20:57.580Z,78
2022-10-28T23:22:56.933Z,79
2022-10-28T23:24:56.924Z,79
2022-10-28T23:28:56.719Z,79
2022-10-28T23:30:56.971Z,79
2022-10-28T23:32:56.942Z,79
2022-10-28T23:35:03.865Z,80
2022-10-28T23:37:00.785Z,79
2022-10-28T23:38:56.960Z,78
2022-10-28T23:40:56.941Z,79
2022-10-28T23:42:57.087Z,79
2022-10-28T23:45:00.664Z,78
2022-10-28T23:48:57.195Z,79
2022-10-28T23:50:56.878Z,80
2022-10-28T23:52:57.666Z,80
2022-10-28T23:54:56.923Z,81
2022-10-28T23:56:56.913Z,81
2022-10-28T23:58:56.974Z,81
